sensor_id;sensor_type;location;lat;lon;timestamp;P1;durP1;ratioP1;P2;durP2;ratioP2
82526;SDS011;72188;41.974;21.456;2024-03-22T00:01:46;49.00;;;22.67;;
82526;SDS011;72188;41.974;21.456;2024-03-22T00:04:12;38.53;;;21.85;;
82526;SDS011;72188;41.974;21.456;2024-03-22T00:06:39;42.05;;;22.75;;
82526;SDS011;72188;41.974;21.456;2024-03-22T00:09:05;52.50;;;24.35;;
82526;SDS011;72188;41.974;21.456;2024-03-22T00:11:31;42.65;;;24.13;;
82526;SDS011;72188;41.974;21.456;2024-03-22T00:13:58;45.30;;;22.98;;
82526;SDS011;72188;41.974;21.456;2024-03-22T00:16:24;41.65;;;22.63;;
82526;SDS011;72188;41.974;21.456;2024-03-22T00:18:50;44.97;;;21.70;;
82526;SDS011;72188;41.974;21.456;2024-03-22T00:21:16;42.40;;;20.88;;
82526;SDS011;72188;41.974;21.456;2024-03-22T00:23:45;43.08;;;21.40;;
82526;SDS011;72188;41.974;21.456;2024-03-22T00:26:12;44.83;;;22.13;;
82526;SDS011;72188;41.974;21.456;2024-03-22T00:28:38;40.33;;;21.65;;
82526;SDS011;72188;41.974;21.456;2024-03-22T00:31:04;54.60;;;28.38;;
82526;SDS011;72188;41.974;21.456;2024-03-22T00:33:30;234.15;;;87.18;;
82526;SDS011;72188;41.974;21.456;2024-03-22T00:35:57;130.90;;;50.22;;
82526;SDS011;72188;41.974;21.456;2024-03-22T00:38:23;61.40;;;28.85;;
82526;SDS011;72188;41.974;21.456;2024-03-22T00:40:49;45.78;;;25.38;;
82526;SDS011;72188;41.974;21.456;2024-03-22T00:43:15;34.33;;;19.10;;
82526;SDS011;72188;41.974;21.456;2024-03-22T00:45:41;42.78;;;20.92;;
82526;SDS011;72188;41.974;21.456;2024-03-22T00:48:08;41.58;;;22.60;;
82526;SDS011;72188;41.974;21.456;2024-03-22T00:50:34;45.42;;;23.27;;
82526;SDS011;72188;41.974;21.456;2024-03-22T00:53:00;47.78;;;24.27;;
82526;SDS011;72188;41.974;21.456;2024-03-22T00:55:28;36.03;;;23.10;;
82526;SDS011;72188;41.974;21.456;2024-03-22T00:57:54;44.22;;;22.58;;
82526;SDS011;72188;41.974;21.456;2024-03-22T01:00:20;36.17;;;21.60;;
82526;SDS011;72188;41.974;21.456;2024-03-22T01:02:46;39.60;;;21.48;;
82526;SDS011;72188;41.974;21.456;2024-03-22T01:05:12;46.60;;;20.88;;
82526;SDS011;72188;41.974;21.456;2024-03-22T01:07:39;38.50;;;20.85;;
82526;SDS011;72188;41.974;21.456;2024-03-22T01:10:05;37.80;;;21.20;;
82526;SDS011;72188;41.974;21.456;2024-03-22T01:12:31;46.00;;;23.67;;
82526;SDS011;72188;41.974;21.456;2024-03-22T01:14:57;36.70;;;18.50;;
82526;SDS011;72188;41.974;21.456;2024-03-22T01:17:23;46.45;;;24.35;;
82526;SDS011;72188;41.974;21.456;2024-03-22T01:19:50;48.13;;;25.63;;
82526;SDS011;72188;41.974;21.456;2024-03-22T01:22:16;58.85;;;28.25;;
82526;SDS011;72188;41.974;21.456;2024-03-22T01:24:43;53.58;;;29.25;;
82526;SDS011;72188;41.974;21.456;2024-03-22T01:27:09;52.70;;;30.58;;
82526;SDS011;72188;41.974;21.456;2024-03-22T01:29:35;58.10;;;29.70;;
82526;SDS011;72188;41.974;21.456;2024-03-22T01:32:01;62.47;;;31.63;;
82526;SDS011;72188;41.974;21.456;2024-03-22T01:34:27;62.00;;;29.17;;
82526;SDS011;72188;41.974;21.456;2024-03-22T01:36:53;55.58;;;28.95;;
82526;SDS011;72188;41.974;21.456;2024-03-22T01:39:20;48.67;;;25.85;;
82526;SDS011;72188;41.974;21.456;2024-03-22T01:41:49;54.58;;;29.80;;
82526;SDS011;72188;41.974;21.456;2024-03-22T01:44:16;45.35;;;28.00;;
82526;SDS011;72188;41.974;21.456;2024-03-22T01:46:42;49.75;;;27.23;;
82526;SDS011;72188;41.974;21.456;2024-03-22T01:49:09;48.15;;;24.42;;
82526;SDS011;72188;41.974;21.456;2024-03-22T01:51:38;37.60;;;22.77;;
82526;SDS011;72188;41.974;21.456;2024-03-22T01:54:04;42.70;;;23.27;;
82526;SDS011;72188;41.974;21.456;2024-03-22T01:56:30;38.53;;;22.77;;
82526;SDS011;72188;41.974;21.456;2024-03-22T01:58:56;37.22;;;20.48;;
82526;SDS011;72188;41.974;21.456;2024-03-22T02:01:23;37.97;;;20.52;;
82526;SDS011;72188;41.974;21.456;2024-03-22T02:03:49;37.60;;;19.30;;
82526;SDS011;72188;41.974;21.456;2024-03-22T02:06:15;35.05;;;19.55;;
82526;SDS011;72188;41.974;21.456;2024-03-22T02:08:41;37.67;;;21.63;;
82526;SDS011;72188;41.974;21.456;2024-03-22T02:11:09;35.63;;;20.45;;
82526;SDS011;72188;41.974;21.456;2024-03-22T02:13:35;32.50;;;19.08;;
82526;SDS011;72188;41.974;21.456;2024-03-22T02:16:04;32.75;;;18.95;;
82526;SDS011;72188;41.974;21.456;2024-03-22T02:18:30;32.92;;;19.13;;
82526;SDS011;72188;41.974;21.456;2024-03-22T02:20:57;40.67;;;19.13;;
82526;SDS011;72188;41.974;21.456;2024-03-22T02:23:36;29.08;;;16.45;;
82526;SDS011;72188;41.974;21.456;2024-03-22T02:26:03;32.25;;;17.40;;
82526;SDS011;72188;41.974;21.456;2024-03-22T02:28:29;28.00;;;15.77;;
82526;SDS011;72188;41.974;21.456;2024-03-22T02:33:22;32.72;;;14.90;;
82526;SDS011;72188;41.974;21.456;2024-03-22T02:35:49;12.70;;;7.80;;
82526;SDS011;72188;41.974;21.456;2024-03-22T02:38:15;15.48;;;8.50;;
82526;SDS011;72188;41.974;21.456;2024-03-22T02:40:45;14.10;;;8.45;;
82526;SDS011;72188;41.974;21.456;2024-03-22T02:43:11;12.23;;;6.85;;
82526;SDS011;72188;41.974;21.456;2024-03-22T02:45:38;13.20;;;8.07;;
82526;SDS011;72188;41.974;21.456;2024-03-22T02:48:04;16.17;;;9.40;;
82526;SDS011;72188;41.974;21.456;2024-03-22T02:50:33;19.58;;;11.27;;
82526;SDS011;72188;41.974;21.456;2024-03-22T02:53:00;24.08;;;12.65;;
82526;SDS011;72188;41.974;21.456;2024-03-22T02:55:26;22.60;;;13.23;;
82526;SDS011;72188;41.974;21.456;2024-03-22T02:57:53;14.52;;;7.90;;
82526;SDS011;72188;41.974;21.456;2024-03-22T03:00:19;26.30;;;16.15;;
82526;SDS011;72188;41.974;21.456;2024-03-22T03:02:45;26.48;;;15.32;;
82526;SDS011;72188;41.974;21.456;2024-03-22T03:05:12;17.95;;;9.98;;
82526;SDS011;72188;41.974;21.456;2024-03-22T03:07:38;12.32;;;7.35;;
82526;SDS011;72188;41.974;21.456;2024-03-22T03:10:04;11.82;;;7.43;;
82526;SDS011;72188;41.974;21.456;2024-03-22T03:12:30;10.48;;;6.28;;
82526;SDS011;72188;41.974;21.456;2024-03-22T03:14:56;11.63;;;6.68;;
82526;SDS011;72188;41.974;21.456;2024-03-22T03:17:22;10.55;;;6.38;;
82526;SDS011;72188;41.974;21.456;2024-03-22T03:19:48;11.80;;;7.20;;
82526;SDS011;72188;41.974;21.456;2024-03-22T03:22:14;9.27;;;5.53;;
82526;SDS011;72188;41.974;21.456;2024-03-22T03:24:41;6.38;;;4.47;;
82526;SDS011;72188;41.974;21.456;2024-03-22T03:27:07;10.32;;;5.68;;
82526;SDS011;72188;41.974;21.456;2024-03-22T03:29:33;11.57;;;6.22;;
82526;SDS011;72188;41.974;21.456;2024-03-22T03:31:59;25.15;;;14.48;;
82526;SDS011;72188;41.974;21.456;2024-03-22T03:34:25;27.70;;;16.35;;
82526;SDS011;72188;41.974;21.456;2024-03-22T03:36:51;29.83;;;13.80;;
82526;SDS011;72188;41.974;21.456;2024-03-22T03:39:17;25.63;;;14.88;;
82526;SDS011;72188;41.974;21.456;2024-03-22T03:41:43;21.92;;;13.18;;
82526;SDS011;72188;41.974;21.456;2024-03-22T03:44:09;24.02;;;13.07;;
82526;SDS011;72188;41.974;21.456;2024-03-22T03:46:35;18.13;;;11.95;;
82526;SDS011;72188;41.974;21.456;2024-03-22T03:49:01;20.30;;;12.88;;
82526;SDS011;72188;41.974;21.456;2024-03-22T03:51:27;25.25;;;13.60;;
82526;SDS011;72188;41.974;21.456;2024-03-22T03:53:53;18.85;;;13.48;;
82526;SDS011;72188;41.974;21.456;2024-03-22T03:56:19;27.77;;;13.07;;
82526;SDS011;72188;41.974;21.456;2024-03-22T03:58:46;25.02;;;13.27;;
82526;SDS011;72188;41.974;21.456;2024-03-22T04:01:12;18.30;;;12.23;;
82526;SDS011;72188;41.974;21.456;2024-03-22T04:03:38;13.43;;;8.52;;
82526;SDS011;72188;41.974;21.456;2024-03-22T04:06:04;16.80;;;8.95;;
82526;SDS011;72188;41.974;21.456;2024-03-22T04:08:30;19.52;;;10.75;;
82526;SDS011;72188;41.974;21.456;2024-03-22T04:10:57;16.35;;;9.88;;
82526;SDS011;72188;41.974;21.456;2024-03-22T04:13:23;18.98;;;10.05;;
82526;SDS011;72188;41.974;21.456;2024-03-22T04:15:50;18.48;;;11.82;;
82526;SDS011;72188;41.974;21.456;2024-03-22T04:18:16;17.95;;;10.23;;
82526;SDS011;72188;41.974;21.456;2024-03-22T04:20:42;16.30;;;9.45;;
82526;SDS011;72188;41.974;21.456;2024-03-22T04:23:09;20.65;;;10.38;;
82526;SDS011;72188;41.974;21.456;2024-03-22T04:25:35;14.75;;;8.82;;
82526;SDS011;72188;41.974;21.456;2024-03-22T04:28:01;18.83;;;10.68;;
82526;SDS011;72188;41.974;21.456;2024-03-22T04:30:27;17.35;;;10.30;;
82526;SDS011;72188;41.974;21.456;2024-03-22T04:32:53;16.08;;;9.38;;
82526;SDS011;72188;41.974;21.456;2024-03-22T04:35:19;16.17;;;9.52;;
82526;SDS011;72188;41.974;21.456;2024-03-22T04:37:45;26.02;;;11.45;;
82526;SDS011;72188;41.974;21.456;2024-03-22T04:40:11;19.75;;;11.23;;
82526;SDS011;72188;41.974;21.456;2024-03-22T04:42:38;22.85;;;10.82;;
82526;SDS011;72188;41.974;21.456;2024-03-22T04:45:04;15.77;;;10.73;;
82526;SDS011;72188;41.974;21.456;2024-03-22T04:47:30;18.15;;;10.65;;
82526;SDS011;72188;41.974;21.456;2024-03-22T04:49:56;18.85;;;11.45;;
82526;SDS011;72188;41.974;21.456;2024-03-22T04:52:23;18.65;;;11.00;;
82526;SDS011;72188;41.974;21.456;2024-03-22T04:54:49;18.90;;;10.35;;
82526;SDS011;72188;41.974;21.456;2024-03-22T04:57:16;16.90;;;9.55;;
82526;SDS011;72188;41.974;21.456;2024-03-22T04:59:42;25.88;;;12.20;;
82526;SDS011;72188;41.974;21.456;2024-03-22T05:02:08;19.00;;;10.55;;
82526;SDS011;72188;41.974;21.456;2024-03-22T05:04:34;16.98;;;11.13;;
82526;SDS011;72188;41.974;21.456;2024-03-22T05:07:00;18.58;;;10.75;;
82526;SDS011;72188;41.974;21.456;2024-03-22T05:09:26;18.73;;;11.68;;
82526;SDS011;72188;41.974;21.456;2024-03-22T05:11:52;21.05;;;12.20;;
82526;SDS011;72188;41.974;21.456;2024-03-22T05:14:19;32.20;;;12.20;;
82526;SDS011;72188;41.974;21.456;2024-03-22T05:16:45;27.33;;;11.93;;
82526;SDS011;72188;41.974;21.456;2024-03-22T05:19:11;18.45;;;11.23;;
82526;SDS011;72188;41.974;21.456;2024-03-22T05:21:39;24.30;;;13.48;;
82526;SDS011;72188;41.974;21.456;2024-03-22T05:24:05;34.65;;;13.65;;
82526;SDS011;72188;41.974;21.456;2024-03-22T05:26:31;33.60;;;17.05;;
82526;SDS011;72188;41.974;21.456;2024-03-22T05:29:01;33.90;;;16.60;;
82526;SDS011;72188;41.974;21.456;2024-03-22T05:31:28;29.85;;;16.20;;
82526;SDS011;72188;41.974;21.456;2024-03-22T05:33:54;30.50;;;15.75;;
82526;SDS011;72188;41.974;21.456;2024-03-22T05:36:20;28.77;;;15.55;;
82526;SDS011;72188;41.974;21.456;2024-03-22T05:38:46;26.50;;;15.57;;
82526;SDS011;72188;41.974;21.456;2024-03-22T05:41:12;28.40;;;16.90;;
82526;SDS011;72188;41.974;21.456;2024-03-22T05:43:38;25.90;;;13.85;;
82526;SDS011;72188;41.974;21.456;2024-03-22T05:46:04;32.03;;;15.60;;
82526;SDS011;72188;41.974;21.456;2024-03-22T05:48:30;31.55;;;16.02;;
82526;SDS011;72188;41.974;21.456;2024-03-22T05:50:56;30.45;;;15.93;;
82526;SDS011;72188;41.974;21.456;2024-03-22T05:53:22;64.22;;;30.30;;
82526;SDS011;72188;41.974;21.456;2024-03-22T05:55:48;56.10;;;25.48;;
82526;SDS011;72188;41.974;21.456;2024-03-22T05:58:14;39.85;;;20.60;;
82526;SDS011;72188;41.974;21.456;2024-03-22T06:00:40;37.72;;;19.08;;
82526;SDS011;72188;41.974;21.456;2024-03-22T06:03:07;29.13;;;17.20;;
82526;SDS011;72188;41.974;21.456;2024-03-22T06:05:33;37.22;;;19.73;;
82526;SDS011;72188;41.974;21.456;2024-03-22T06:07:59;36.20;;;20.90;;
82526;SDS011;72188;41.974;21.456;2024-03-22T06:10:25;31.60;;;19.73;;
82526;SDS011;72188;41.974;21.456;2024-03-22T06:12:51;31.35;;;15.75;;
82526;SDS011;72188;41.974;21.456;2024-03-22T06:15:18;26.92;;;15.18;;
82526;SDS011;72188;41.974;21.456;2024-03-22T06:17:46;20.23;;;13.48;;
82526;SDS011;72188;41.974;21.456;2024-03-22T06:20:13;27.40;;;13.57;;
82526;SDS011;72188;41.974;21.456;2024-03-22T06:22:39;16.20;;;8.73;;
82526;SDS011;72188;41.974;21.456;2024-03-22T06:25:05;21.73;;;10.40;;
82526;SDS011;72188;41.974;21.456;2024-03-22T06:27:31;15.57;;;8.60;;
82526;SDS011;72188;41.974;21.456;2024-03-22T06:29:57;19.67;;;11.88;;
82526;SDS011;72188;41.974;21.456;2024-03-22T06:32:23;16.80;;;8.60;;
82526;SDS011;72188;41.974;21.456;2024-03-22T06:34:49;18.27;;;11.60;;
82526;SDS011;72188;41.974;21.456;2024-03-22T06:37:15;20.83;;;12.57;;
82526;SDS011;72188;41.974;21.456;2024-03-22T06:39:41;13.55;;;8.35;;
82526;SDS011;72188;41.974;21.456;2024-03-22T06:42:07;14.05;;;7.65;;
82526;SDS011;72188;41.974;21.456;2024-03-22T06:44:33;17.70;;;8.98;;
82526;SDS011;72188;41.974;21.456;2024-03-22T06:46:59;18.63;;;9.98;;
82526;SDS011;72188;41.974;21.456;2024-03-22T06:49:25;20.27;;;11.52;;
82526;SDS011;72188;41.974;21.456;2024-03-22T06:51:51;14.20;;;7.60;;
82526;SDS011;72188;41.974;21.456;2024-03-22T06:54:17;20.10;;;10.32;;
82526;SDS011;72188;41.974;21.456;2024-03-22T06:56:44;17.25;;;10.23;;
82526;SDS011;72188;41.974;21.456;2024-03-22T06:59:10;15.30;;;9.45;;
82526;SDS011;72188;41.974;21.456;2024-03-22T07:01:36;15.02;;;7.82;;
82526;SDS011;72188;41.974;21.456;2024-03-22T07:04:02;11.73;;;7.47;;
82526;SDS011;72188;41.974;21.456;2024-03-22T07:06:28;14.90;;;9.88;;
82526;SDS011;72188;41.974;21.456;2024-03-22T07:08:54;23.05;;;9.88;;
82526;SDS011;72188;41.974;21.456;2024-03-22T07:11:21;26.25;;;10.45;;
82526;SDS011;72188;41.974;21.456;2024-03-22T07:13:47;19.70;;;9.80;;
82526;SDS011;72188;41.974;21.456;2024-03-22T07:16:13;17.10;;;9.07;;
82526;SDS011;72188;41.974;21.456;2024-03-22T07:18:39;12.98;;;7.25;;
82526;SDS011;72188;41.974;21.456;2024-03-22T07:21:05;20.80;;;9.68;;
82526;SDS011;72188;41.974;21.456;2024-03-22T07:23:32;17.45;;;9.07;;
82526;SDS011;72188;41.974;21.456;2024-03-22T07:25:58;13.85;;;7.28;;
82526;SDS011;72188;41.974;21.456;2024-03-22T07:28:24;12.52;;;7.20;;
82526;SDS011;72188;41.974;21.456;2024-03-22T07:30:50;10.13;;;6.15;;
82526;SDS011;72188;41.974;21.456;2024-03-22T07:33:16;23.13;;;8.13;;
82526;SDS011;72188;41.974;21.456;2024-03-22T07:35:43;18.00;;;8.90;;
82526;SDS011;72188;41.974;21.456;2024-03-22T07:38:09;10.15;;;6.13;;
82526;SDS011;72188;41.974;21.456;2024-03-22T07:40:35;13.57;;;7.97;;
82526;SDS011;72188;41.974;21.456;2024-03-22T07:43:02;12.30;;;7.40;;
82526;SDS011;72188;41.974;21.456;2024-03-22T07:45:31;14.25;;;7.63;;
82526;SDS011;72188;41.974;21.456;2024-03-22T07:47:57;14.05;;;8.57;;
82526;SDS011;72188;41.974;21.456;2024-03-22T07:50:23;15.23;;;8.93;;
82526;SDS011;72188;41.974;21.456;2024-03-22T07:52:49;16.92;;;8.02;;
82526;SDS011;72188;41.974;21.456;2024-03-22T07:55:15;12.15;;;8.02;;
82526;SDS011;72188;41.974;21.456;2024-03-22T07:57:42;12.30;;;7.32;;
82526;SDS011;72188;41.974;21.456;2024-03-22T08:00:08;13.13;;;7.40;;
82526;SDS011;72188;41.974;21.456;2024-03-22T08:02:34;14.07;;;7.60;;
82526;SDS011;72188;41.974;21.456;2024-03-22T08:05:01;13.10;;;7.50;;
82526;SDS011;72188;41.974;21.456;2024-03-22T08:07:27;16.08;;;7.65;;
82526;SDS011;72188;41.974;21.456;2024-03-22T08:09:54;14.35;;;8.45;;
82526;SDS011;72188;41.974;21.456;2024-03-22T08:12:21;12.88;;;6.75;;
82526;SDS011;72188;41.974;21.456;2024-03-22T08:14:47;13.95;;;7.55;;
82526;SDS011;72188;41.974;21.456;2024-03-22T08:17:13;13.23;;;8.05;;
82526;SDS011;72188;41.974;21.456;2024-03-22T08:19:40;8.30;;;5.25;;
82526;SDS011;72188;41.974;21.456;2024-03-22T08:22:06;13.73;;;8.18;;
82526;SDS011;72188;41.974;21.456;2024-03-22T08:24:32;16.00;;;8.88;;
82526;SDS011;72188;41.974;21.456;2024-03-22T08:26:59;14.05;;;7.60;;
82526;SDS011;72188;41.974;21.456;2024-03-22T08:29:25;15.55;;;8.65;;
82526;SDS011;72188;41.974;21.456;2024-03-22T08:31:51;15.07;;;8.52;;
82526;SDS011;72188;41.974;21.456;2024-03-22T08:36:53;12.70;;;7.68;;
82526;SDS011;72188;41.974;21.456;2024-03-22T08:39:19;9.30;;;6.55;;
82526;SDS011;72188;41.974;21.456;2024-03-22T08:41:45;13.25;;;8.57;;
82526;SDS011;72188;41.974;21.456;2024-03-22T08:44:11;17.60;;;8.55;;
82526;SDS011;72188;41.974;21.456;2024-03-22T08:46:37;15.27;;;8.43;;
82526;SDS011;72188;41.974;21.456;2024-03-22T08:49:03;14.18;;;8.50;;
82526;SDS011;72188;41.974;21.456;2024-03-22T08:51:30;13.27;;;8.35;;
82526;SDS011;72188;41.974;21.456;2024-03-22T08:53:56;13.25;;;7.82;;
82526;SDS011;72188;41.974;21.456;2024-03-22T08:56:22;11.07;;;7.20;;
82526;SDS011;72188;41.974;21.456;2024-03-22T08:58:48;19.40;;;9.95;;
82526;SDS011;72188;41.974;21.456;2024-03-22T09:01:15;13.80;;;8.73;;
82526;SDS011;72188;41.974;21.456;2024-03-22T09:03:41;14.38;;;7.65;;
82526;SDS011;72188;41.974;21.456;2024-03-22T09:06:11;12.38;;;6.68;;
82526;SDS011;72188;41.974;21.456;2024-03-22T09:08:37;12.15;;;7.50;;
82526;SDS011;72188;41.974;21.456;2024-03-22T09:11:03;12.70;;;8.13;;
82526;SDS011;72188;41.974;21.456;2024-03-22T09:13:29;13.68;;;6.20;;
82526;SDS011;72188;41.974;21.456;2024-03-22T09:15:56;11.35;;;6.88;;
82526;SDS011;72188;41.974;21.456;2024-03-22T09:18:23;15.68;;;8.57;;
82526;SDS011;72188;41.974;21.456;2024-03-22T09:20:49;14.35;;;7.40;;
82526;SDS011;72188;41.974;21.456;2024-03-22T09:23:15;13.85;;;7.63;;
82526;SDS011;72188;41.974;21.456;2024-03-22T09:25:41;14.82;;;8.13;;
82526;SDS011;72188;41.974;21.456;2024-03-22T09:28:07;14.30;;;8.38;;
82526;SDS011;72188;41.974;21.456;2024-03-22T09:30:37;11.77;;;7.53;;
82526;SDS011;72188;41.974;21.456;2024-03-22T09:33:04;13.18;;;6.45;;
82526;SDS011;72188;41.974;21.456;2024-03-22T09:35:30;13.60;;;7.13;;
82526;SDS011;72188;41.974;21.456;2024-03-22T09:37:57;10.82;;;6.03;;
82526;SDS011;72188;41.974;21.456;2024-03-22T09:40:23;11.05;;;7.70;;
82526;SDS011;72188;41.974;21.456;2024-03-22T09:42:49;18.15;;;10.02;;
82526;SDS011;72188;41.974;21.456;2024-03-22T09:45:18;17.83;;;9.65;;
82526;SDS011;72188;41.974;21.456;2024-03-22T09:47:45;19.13;;;10.35;;
82526;SDS011;72188;41.974;21.456;2024-03-22T09:50:11;16.13;;;8.80;;
82526;SDS011;72188;41.974;21.456;2024-03-22T09:52:38;14.48;;;8.63;;
82526;SDS011;72188;41.974;21.456;2024-03-22T09:55:07;11.15;;;7.10;;
82526;SDS011;72188;41.974;21.456;2024-03-22T09:57:40;11.80;;;6.82;;
82526;SDS011;72188;41.974;21.456;2024-03-22T10:00:06;11.68;;;7.30;;
82526;SDS011;72188;41.974;21.456;2024-03-22T10:02:33;10.82;;;7.43;;
82526;SDS011;72188;41.974;21.456;2024-03-22T10:04:59;12.60;;;7.85;;
82526;SDS011;72188;41.974;21.456;2024-03-22T10:07:27;12.40;;;7.80;;
82526;SDS011;72188;41.974;21.456;2024-03-22T10:09:53;13.45;;;7.63;;
82526;SDS011;72188;41.974;21.456;2024-03-22T10:12:22;10.82;;;7.10;;
82526;SDS011;72188;41.974;21.456;2024-03-22T10:14:50;13.07;;;8.00;;
82526;SDS011;72188;41.974;21.456;2024-03-22T10:17:16;10.40;;;6.32;;
82526;SDS011;72188;41.974;21.456;2024-03-22T10:19:42;10.48;;;6.28;;
82526;SDS011;72188;41.974;21.456;2024-03-22T10:22:09;12.52;;;7.88;;
82526;SDS011;72188;41.974;21.456;2024-03-22T10:24:35;8.88;;;6.70;;
82526;SDS011;72188;41.974;21.456;2024-03-22T10:27:01;13.52;;;7.57;;
82526;SDS011;72188;41.974;21.456;2024-03-22T10:29:27;13.02;;;6.93;;
82526;SDS011;72188;41.974;21.456;2024-03-22T10:31:54;19.35;;;8.32;;
82526;SDS011;72188;41.974;21.456;2024-03-22T10:34:24;11.68;;;6.38;;
82526;SDS011;72188;41.974;21.456;2024-03-22T10:36:50;12.38;;;7.95;;
82526;SDS011;72188;41.974;21.456;2024-03-22T10:39:17;9.15;;;6.53;;
82526;SDS011;72188;41.974;21.456;2024-03-22T10:46:36;10.45;;;7.13;;
82526;SDS011;72188;41.974;21.456;2024-03-22T10:49:02;10.88;;;6.40;;
82526;SDS011;72188;41.974;21.456;2024-03-22T10:51:29;11.20;;;7.95;;
82526;SDS011;72188;41.974;21.456;2024-03-22T10:53:56;11.95;;;7.30;;
82526;SDS011;72188;41.974;21.456;2024-03-22T10:56:22;10.13;;;6.70;;
82526;SDS011;72188;41.974;21.456;2024-03-22T10:58:49;13.30;;;8.52;;
82526;SDS011;72188;41.974;21.456;2024-03-22T11:01:24;18.20;;;8.82;;
82526;SDS011;72188;41.974;21.456;2024-03-22T11:08:44;12.45;;;8.30;;
82526;SDS011;72188;41.974;21.456;2024-03-22T11:11:15;14.77;;;7.57;;
82526;SDS011;72188;41.974;21.456;2024-03-22T11:13:46;9.57;;;7.03;;
82526;SDS011;72188;41.974;21.456;2024-03-22T11:16:15;9.38;;;6.70;;
82526;SDS011;72188;41.974;21.456;2024-03-22T11:18:42;12.93;;;8.40;;
82526;SDS011;72188;41.974;21.456;2024-03-22T11:21:08;11.68;;;7.10;;
82526;SDS011;72188;41.974;21.456;2024-03-22T11:23:37;9.40;;;6.30;;
82526;SDS011;72188;41.974;21.456;2024-03-22T11:26:03;11.88;;;6.78;;
82526;SDS011;72188;41.974;21.456;2024-03-22T11:28:32;11.43;;;6.10;;
82526;SDS011;72188;41.974;21.456;2024-03-22T11:30:58;9.48;;;4.50;;
82526;SDS011;72188;41.974;21.456;2024-03-22T11:33:24;13.07;;;6.72;;
82526;SDS011;72188;41.974;21.456;2024-03-22T11:35:52;10.60;;;7.32;;
82526;SDS011;72188;41.974;21.456;2024-03-22T11:43:10;12.10;;;6.78;;
82526;SDS011;72188;41.974;21.456;2024-03-22T11:45:39;10.40;;;6.93;;
82526;SDS011;72188;41.974;21.456;2024-03-22T11:48:05;11.35;;;6.82;;
82526;SDS011;72188;41.974;21.456;2024-03-22T11:50:31;10.90;;;6.65;;
82526;SDS011;72188;41.974;21.456;2024-03-22T11:52:57;12.25;;;7.32;;
82526;SDS011;72188;41.974;21.456;2024-03-22T11:55:26;12.98;;;7.80;;
82526;SDS011;72188;41.974;21.456;2024-03-22T11:57:53;15.98;;;8.55;;
82526;SDS011;72188;41.974;21.456;2024-03-22T12:00:19;13.63;;;8.05;;
82526;SDS011;72188;41.974;21.456;2024-03-22T12:02:47;9.98;;;6.78;;
82526;SDS011;72188;41.974;21.456;2024-03-22T12:05:13;11.73;;;6.35;;
82526;SDS011;72188;41.974;21.456;2024-03-22T12:07:40;22.55;;;15.00;;
82526;SDS011;72188;41.974;21.456;2024-03-22T12:10:06;22.30;;;9.02;;
82526;SDS011;72188;41.974;21.456;2024-03-22T12:12:32;11.32;;;6.20;;
82526;SDS011;72188;41.974;21.456;2024-03-22T12:14:58;9.55;;;6.47;;
82526;SDS011;72188;41.974;21.456;2024-03-22T12:17:24;8.98;;;6.22;;
82526;SDS011;72188;41.974;21.456;2024-03-22T12:19:50;13.55;;;6.90;;
82526;SDS011;72188;41.974;21.456;2024-03-22T12:22:17;12.77;;;7.32;;
82526;SDS011;72188;41.974;21.456;2024-03-22T12:24:43;10.15;;;6.50;;
82526;SDS011;72188;41.974;21.456;2024-03-22T12:27:09;10.82;;;6.80;;
82526;SDS011;72188;41.974;21.456;2024-03-22T12:29:35;9.90;;;6.28;;
82526;SDS011;72188;41.974;21.456;2024-03-22T12:32:02;11.23;;;6.00;;
82526;SDS011;72188;41.974;21.456;2024-03-22T12:34:29;9.32;;;6.10;;
82526;SDS011;72188;41.974;21.456;2024-03-22T12:36:55;8.32;;;5.13;;
82526;SDS011;72188;41.974;21.456;2024-03-22T12:39:22;10.40;;;6.32;;
82526;SDS011;72188;41.974;21.456;2024-03-22T12:41:48;7.32;;;5.20;;
82526;SDS011;72188;41.974;21.456;2024-03-22T12:44:14;7.90;;;4.68;;
82526;SDS011;72188;41.974;21.456;2024-03-22T12:46:40;7.30;;;4.63;;
82526;SDS011;72188;41.974;21.456;2024-03-22T12:49:08;8.13;;;5.13;;
82526;SDS011;72188;41.974;21.456;2024-03-22T12:51:37;8.65;;;5.93;;
82526;SDS011;72188;41.974;21.456;2024-03-22T12:54:04;10.43;;;5.68;;
82526;SDS011;72188;41.974;21.456;2024-03-22T12:56:31;8.43;;;5.78;;
82526;SDS011;72188;41.974;21.456;2024-03-22T12:58:58;8.93;;;5.28;;
82526;SDS011;72188;41.974;21.456;2024-03-22T13:01:24;8.65;;;6.05;;
82526;SDS011;72188;41.974;21.456;2024-03-22T13:03:50;9.40;;;4.47;;
82526;SDS011;72188;41.974;21.456;2024-03-22T13:06:16;6.72;;;4.30;;
82526;SDS011;72188;41.974;21.456;2024-03-22T13:08:42;9.77;;;6.15;;
82526;SDS011;72188;41.974;21.456;2024-03-22T13:11:08;13.57;;;6.05;;
82526;SDS011;72188;41.974;21.456;2024-03-22T13:13:34;9.02;;;5.90;;
82526;SDS011;72188;41.974;21.456;2024-03-22T13:16:00;10.18;;;6.53;;
82526;SDS011;72188;41.974;21.456;2024-03-22T13:18:30;10.27;;;5.97;;
82526;SDS011;72188;41.974;21.456;2024-03-22T13:20:57;9.50;;;6.40;;
82526;SDS011;72188;41.974;21.456;2024-03-22T13:23:24;11.23;;;6.10;;
82526;SDS011;72188;41.974;21.456;2024-03-22T13:25:50;8.75;;;5.72;;
82526;SDS011;72188;41.974;21.456;2024-03-22T13:28:16;9.43;;;6.30;;
82526;SDS011;72188;41.974;21.456;2024-03-22T13:30:46;12.73;;;6.32;;
82526;SDS011;72188;41.974;21.456;2024-03-22T13:33:12;11.02;;;6.22;;
82526;SDS011;72188;41.974;21.456;2024-03-22T13:35:38;7.95;;;4.57;;
82526;SDS011;72188;41.974;21.456;2024-03-22T13:38:06;10.70;;;6.57;;
82526;SDS011;72188;41.974;21.456;2024-03-22T13:40:38;9.20;;;6.20;;
82526;SDS011;72188;41.974;21.456;2024-03-22T13:43:05;10.95;;;5.38;;
82526;SDS011;72188;41.974;21.456;2024-03-22T13:45:31;13.93;;;7.30;;
82526;SDS011;72188;41.974;21.456;2024-03-22T13:47:58;10.13;;;5.80;;
82526;SDS011;72188;41.974;21.456;2024-03-22T13:50:24;14.23;;;6.75;;
82526;SDS011;72188;41.974;21.456;2024-03-22T13:52:50;13.10;;;6.30;;
82526;SDS011;72188;41.974;21.456;2024-03-22T13:55:16;8.43;;;4.50;;
82526;SDS011;72188;41.974;21.456;2024-03-22T13:57:42;6.93;;;3.85;;
82526;SDS011;72188;41.974;21.456;2024-03-22T14:00:08;11.68;;;6.00;;
82526;SDS011;72188;41.974;21.456;2024-03-22T14:02:39;8.55;;;4.50;;
82526;SDS011;72188;41.974;21.456;2024-03-22T14:05:05;11.95;;;7.57;;
82526;SDS011;72188;41.974;21.456;2024-03-22T14:07:33;7.78;;;4.90;;
82526;SDS011;72188;41.974;21.456;2024-03-22T14:10:01;12.30;;;5.35;;
82526;SDS011;72188;41.974;21.456;2024-03-22T14:12:28;10.52;;;6.13;;
82526;SDS011;72188;41.974;21.456;2024-03-22T14:14:54;9.43;;;4.60;;
82526;SDS011;72188;41.974;21.456;2024-03-22T14:17:20;11.75;;;6.20;;
82526;SDS011;72188;41.974;21.456;2024-03-22T14:19:46;10.05;;;5.63;;
82526;SDS011;72188;41.974;21.456;2024-03-22T14:22:12;11.07;;;5.57;;
82526;SDS011;72188;41.974;21.456;2024-03-22T14:24:38;8.15;;;4.97;;
82526;SDS011;72188;41.974;21.456;2024-03-22T14:27:04;9.43;;;5.57;;
82526;SDS011;72188;41.974;21.456;2024-03-22T14:29:31;7.60;;;5.05;;
82526;SDS011;72188;41.974;21.456;2024-03-22T14:31:57;10.75;;;6.05;;
82526;SDS011;72188;41.974;21.456;2024-03-22T14:34:23;8.35;;;5.90;;